createdAt,value
2023-01-23T00:01:02.977Z,21.52
2023-01-23T00:03:29.425Z,21.63
2023-01-23T00:06:09.264Z,22.17
2023-01-23T00:08:35.796Z,26.52
2023-01-23T00:11:12.074Z,25.92
2023-01-23T00:13:38.561Z,20.88
2023-01-23T00:16:08.887Z,27.35
2023-01-23T00:18:35.483Z,22.67
2023-01-23T00:21:05.811Z,24.23
2023-01-23T00:23:32.453Z,28.17
2023-01-23T00:26:09.000Z,25.38
2023-01-23T00:28:35.451Z,29.48
2023-01-23T00:31:02.652Z,24.50
2023-01-23T00:33:29.108Z,24.10
2023-01-23T00:36:00.578Z,27.10
2023-01-23T00:38:27.455Z,25.70
2023-01-23T00:40:58.816Z,30.83
2023-01-23T00:43:25.420Z,24.77
2023-01-23T00:45:51.986Z,23.35
2023-01-23T00:48:19.289Z,27.15
2023-01-23T00:51:04.954Z,28.42
2023-01-23T00:53:44.578Z,22.48
2023-01-23T00:58:48.738Z,23.23
2023-01-23T01:01:27.698Z,27.42
2023-01-23T01:04:02.864Z,24.45
2023-01-23T01:06:40.461Z,24.85
2023-01-23T01:09:07.111Z,31.00
2023-01-23T01:11:33.624Z,31.90
2023-01-23T01:14:01.360Z,24.10
2023-01-23T01:16:27.812Z,27.08
2023-01-23T01:18:54.676Z,21.58
2023-01-23T01:21:21.222Z,23.88
2023-01-23T01:23:47.594Z,28.88
2023-01-23T01:26:13.985Z,24.08
2023-01-23T01:28:42.103Z,26.60
2023-01-23T01:31:10.395Z,25.92
2023-01-23T01:33:37.706Z,29.50
2023-01-23T01:36:07.539Z,30.13
2023-01-23T01:38:33.897Z,25.10
2023-01-23T01:41:00.280Z,22.80
2023-01-23T01:43:27.639Z,25.83
2023-01-23T01:46:12.970Z,29.95
2023-01-23T01:48:58.044Z,23.40
2023-01-23T01:51:30.937Z,27.33
2023-01-23T01:54:09.212Z,25.67
2023-01-23T01:56:41.998Z,26.52
2023-01-23T01:59:09.683Z,29.00
2023-01-23T02:01:36.045Z,23.20
2023-01-23T02:04:02.909Z,26.20
2023-01-23T02:06:29.830Z,26.20
2023-01-23T02:08:59.392Z,27.65
2023-01-23T02:11:25.862Z,25.15
2023-01-23T02:13:55.302Z,29.08
2023-01-23T02:16:23.948Z,26.00
2023-01-23T02:18:53.831Z,25.55
2023-01-23T02:21:23.189Z,30.17
2023-01-23T02:23:54.235Z,28.33
2023-01-23T02:26:23.381Z,25.00
2023-01-23T02:28:51.677Z,26.60
2023-01-23T02:31:18.167Z,32.45
2023-01-23T02:33:52.352Z,25.80
2023-01-23T02:36:20.693Z,28.55
2023-01-23T02:38:54.723Z,26.63
2023-01-23T02:41:25.860Z,24.42
2023-01-23T02:43:53.337Z,24.67
2023-01-23T02:46:20.753Z,26.10
2023-01-23T02:48:47.590Z,27.33
2023-01-23T02:51:14.000Z,29.55
2023-01-23T02:53:42.513Z,38.40
2023-01-23T02:56:08.979Z,28.13
2023-01-23T02:58:53.961Z,25.55
2023-01-23T03:01:20.414Z,29.73
2023-01-23T03:03:46.895Z,33.83
2023-01-23T03:06:13.349Z,30.17
2023-01-23T03:08:47.456Z,35.15
2023-01-23T03:11:14.836Z,30.38
2023-01-23T03:13:41.220Z,31.33
2023-01-23T03:16:07.778Z,35.03
2023-01-23T03:18:39.992Z,32.83
2023-01-23T03:21:12.500Z,31.63
2023-01-23T03:23:44.699Z,39.60
2023-01-23T03:26:11.692Z,34.17
2023-01-23T03:28:56.806Z,25.08
2023-01-23T03:31:23.255Z,32.45
2023-01-23T03:33:49.668Z,33.95
2023-01-23T03:36:16.054Z,25.63
2023-01-23T03:39:05.401Z,31.13
2023-01-23T03:41:31.734Z,32.20
2023-01-23T03:43:58.064Z,28.15
2023-01-23T03:46:24.656Z,34.28
2023-01-23T03:48:51.297Z,31.70
2023-01-23T03:51:17.679Z,35.92
2023-01-23T03:53:44.062Z,23.85
2023-01-23T03:56:10.697Z,28.08
2023-01-23T03:58:37.059Z,27.92
2023-01-23T04:01:07.637Z,27.23
2023-01-23T04:03:34.099Z,29.23
2023-01-23T04:06:00.552Z,30.70
2023-01-23T04:08:26.969Z,29.60
2023-01-23T04:11:00.988Z,30.48
2023-01-23T04:13:27.308Z,27.50
2023-01-23T04:15:53.723Z,26.25
2023-01-23T04:18:20.165Z,28.95
2023-01-23T04:20:46.460Z,25.45
2023-01-23T04:23:12.830Z,28.25
2023-01-23T04:25:39.228Z,24.52
2023-01-23T04:28:05.610Z,27.23
2023-01-23T04:30:32.067Z,31.48
2023-01-23T04:32:58.453Z,29.67
2023-01-23T04:35:24.794Z,29.08
2023-01-23T04:37:51.174Z,31.33
2023-01-23T04:40:17.749Z,29.92
2023-01-23T04:42:44.410Z,37.30
2023-01-23T04:45:11.382Z,34.80
2023-01-23T04:47:37.768Z,34.75
2023-01-23T04:50:04.396Z,34.50
2023-01-23T04:52:31.035Z,28.05
2023-01-23T04:54:57.802Z,25.58
2023-01-23T04:57:27.269Z,26.73
2023-01-23T04:59:53.633Z,30.83
2023-01-23T05:02:20.047Z,28.23
2023-01-23T05:04:46.702Z,26.38
2023-01-23T05:07:13.316Z,27.42
2023-01-23T05:09:39.696Z,30.38
2023-01-23T05:12:06.126Z,30.67
2023-01-23T05:14:32.766Z,34.88
2023-01-23T05:16:59.070Z,23.65
2023-01-23T05:19:25.402Z,27.90
2023-01-23T05:21:51.736Z,31.23
2023-01-23T05:24:18.160Z,26.60
2023-01-23T05:26:44.447Z,29.20
2023-01-23T05:29:10.780Z,26.83
2023-01-23T05:31:37.210Z,31.98
2023-01-23T05:34:03.720Z,32.00
2023-01-23T05:36:30.032Z,28.48
2023-01-23T05:38:57.161Z,33.85
2023-01-23T05:41:25.550Z,30.13
2023-01-23T05:43:52.067Z,27.05
2023-01-23T05:46:18.455Z,30.88
2023-01-23T05:48:44.891Z,31.67
2023-01-23T05:51:11.363Z,31.00
2023-01-23T05:53:37.796Z,25.98
2023-01-23T05:56:16.195Z,30.52
2023-01-23T06:01:11.272Z,28.27
2023-01-23T06:03:37.760Z,24.33
2023-01-23T06:06:04.173Z,30.63
2023-01-23T06:08:30.645Z,28.65
2023-01-23T06:11:02.753Z,39.40
2023-01-23T06:13:32.616Z,31.98
2023-01-23T06:15:59.789Z,29.42
2023-01-23T06:18:26.129Z,34.83
2023-01-23T06:20:59.453Z,29.23
2023-01-23T06:23:26.300Z,32.45
2023-01-23T06:25:52.787Z,30.23
2023-01-23T06:28:19.215Z,37.45
2023-01-23T06:30:45.676Z,33.15
2023-01-23T06:33:12.071Z,31.10
2023-01-23T06:35:38.550Z,37.10
2023-01-23T06:38:04.889Z,27.58
2023-01-23T06:40:31.379Z,32.45
2023-01-23T06:42:57.724Z,32.10
2023-01-23T06:45:24.046Z,33.60
2023-01-23T06:47:51.883Z,29.67
2023-01-23T06:50:18.563Z,33.67
2023-01-23T06:52:45.124Z,30.65
2023-01-23T06:55:13.211Z,31.30
2023-01-23T06:57:40.939Z,28.17
2023-01-23T07:00:07.868Z,33.38
2023-01-23T07:02:34.399Z,33.25
2023-01-23T07:05:00.811Z,35.78
2023-01-23T07:07:29.170Z,33.55
2023-01-23T07:09:55.657Z,32.75
2023-01-23T07:12:22.179Z,34.53
2023-01-23T07:14:48.585Z,34.35
2023-01-23T07:17:15.083Z,33.35
2023-01-23T07:19:41.466Z,30.23
2023-01-23T07:22:07.818Z,37.38
2023-01-23T07:24:34.208Z,29.70
2023-01-23T07:27:00.578Z,39.40
2023-01-23T07:29:27.075Z,31.88
2023-01-23T07:31:54.351Z,32.35
2023-01-23T07:34:20.786Z,39.17
2023-01-23T07:36:47.092Z,28.80
2023-01-23T07:39:13.446Z,36.90
2023-01-23T07:41:43.844Z,32.03
2023-01-23T07:44:16.963Z,35.25
2023-01-23T07:46:46.748Z,39.63
2023-01-23T07:49:13.421Z,38.23
2023-01-23T07:51:40.248Z,40.95
2023-01-23T07:54:06.797Z,37.03
2023-01-23T07:56:33.356Z,35.90
2023-01-23T07:59:00.496Z,35.65
2023-01-23T08:01:26.862Z,35.45
2023-01-23T08:03:53.569Z,29.85
2023-01-23T08:06:20.125Z,34.15
2023-01-23T08:08:49.826Z,36.97
2023-01-23T08:11:16.267Z,36.85
2023-01-23T08:13:42.824Z,35.30
2023-01-23T08:16:10.873Z,36.05
2023-01-23T08:18:38.446Z,35.28
2023-01-23T08:21:05.403Z,33.35
2023-01-23T08:23:32.972Z,36.15
2023-01-23T08:26:01.104Z,39.83
2023-01-23T08:28:27.861Z,35.40
2023-01-23T08:30:54.773Z,35.97
2023-01-23T08:33:21.615Z,31.80
2023-01-23T08:35:48.954Z,34.35
2023-01-23T08:38:15.539Z,34.40
2023-01-23T08:40:41.973Z,30.80
2023-01-23T08:43:10.606Z,40.63
2023-01-23T08:45:37.369Z,37.78
2023-01-23T08:48:03.946Z,29.08
2023-01-23T08:50:32.996Z,37.22
2023-01-23T08:52:59.575Z,29.83
2023-01-23T08:55:28.438Z,33.22
2023-01-23T08:57:54.913Z,34.72
2023-01-23T09:00:21.880Z,33.83
2023-01-23T09:02:48.450Z,33.30
2023-01-23T09:05:14.886Z,35.88
2023-01-23T09:07:41.346Z,36.15
2023-01-23T09:10:08.105Z,30.70
2023-01-23T09:12:34.693Z,37.65
2023-01-23T09:15:01.088Z,31.23
2023-01-23T09:17:27.670Z,35.63
2023-01-23T09:19:54.052Z,33.60
2023-01-23T09:22:40.511Z,40.08
2023-01-23T09:25:08.051Z,31.90
2023-01-23T09:27:34.540Z,29.95
2023-01-23T09:30:01.124Z,34.78
2023-01-23T09:32:27.447Z,29.95
2023-01-23T09:34:54.904Z,31.10
2023-01-23T09:37:21.269Z,31.15
2023-01-23T09:39:47.607Z,32.42
2023-01-23T09:42:18.017Z,30.63
2023-01-23T09:44:50.716Z,29.33
2023-01-23T09:47:19.938Z,32.65
2023-01-23T09:49:53.206Z,28.48
2023-01-23T09:52:21.399Z,34.67
2023-01-23T09:54:48.793Z,31.00
2023-01-23T09:57:45.778Z,32.35
2023-01-23T10:00:17.825Z,28.10
2023-01-23T10:02:45.061Z,25.52
2023-01-23T10:05:15.836Z,31.13
2023-01-23T10:08:00.984Z,32.03
2023-01-23T10:10:54.039Z,30.73
2023-01-23T10:13:41.479Z,28.98
2023-01-23T10:16:13.982Z,29.38
2023-01-23T10:18:44.462Z,28.02
2023-01-23T10:21:29.554Z,27.15
2023-01-23T10:24:13.794Z,29.05
2023-01-23T10:26:43.546Z,28.08
2023-01-23T10:29:29.894Z,29.60
2023-01-23T10:31:59.231Z,27.58
2023-01-23T10:34:34.885Z,30.83
2023-01-23T10:37:13.485Z,26.80
2023-01-23T10:40:00.349Z,27.80
2023-01-23T10:42:45.692Z,22.95
2023-01-23T10:45:17.853Z,23.40
2023-01-23T10:47:50.104Z,26.83
2023-01-23T10:50:34.353Z,23.55
2023-01-23T10:53:09.159Z,24.08
2023-01-23T10:55:35.609Z,28.63
2023-01-23T10:58:03.282Z,24.67
2023-01-23T11:00:29.693Z,24.88
2023-01-23T11:02:56.209Z,27.42
2023-01-23T11:05:33.679Z,24.27
2023-01-23T11:08:04.280Z,22.25
2023-01-23T11:10:30.674Z,22.90
2023-01-23T11:12:57.665Z,24.17
2023-01-23T11:15:29.755Z,25.33
2023-01-23T11:17:57.574Z,23.38
2023-01-23T11:20:26.360Z,34.30
2023-01-23T11:23:03.882Z,23.02
2023-01-23T11:25:31.747Z,23.85
2023-01-23T11:27:59.134Z,27.15
2023-01-23T11:30:30.000Z,24.50
2023-01-23T11:35:41.601Z,19.95
2023-01-23T11:38:11.235Z,21.33
2023-01-23T11:40:37.756Z,22.77
2023-01-23T11:43:09.714Z,25.45
2023-01-23T11:45:54.083Z,27.00
2023-01-23T11:48:20.777Z,24.17
2023-01-23T11:50:55.903Z,23.70
2023-01-23T11:53:42.870Z,24.33
2023-01-23T11:56:15.761Z,22.08
2023-01-23T11:59:12.721Z,24.02
2023-01-23T12:02:02.484Z,25.05
2023-01-23T12:04:29.246Z,25.13
2023-01-23T12:06:55.620Z,23.10
2023-01-23T12:09:28.522Z,23.70
2023-01-23T12:12:04.292Z,21.92
2023-01-23T12:14:47.245Z,23.33
2023-01-23T12:20:19.017Z,19.83
2023-01-23T12:22:50.693Z,20.20
2023-01-23T12:28:17.812Z,20.25
2023-01-23T12:30:59.712Z,20.55
2023-01-23T12:33:47.368Z,22.00
2023-01-23T12:36:34.136Z,21.10
2023-01-23T12:39:14.313Z,21.27
2023-01-23T12:41:43.369Z,20.38
2023-01-23T12:44:13.129Z,20.95
2023-01-23T12:46:43.402Z,20.63
2023-01-23T12:49:28.347Z,19.60
2023-01-23T12:52:01.091Z,21.55
2023-01-23T12:54:34.591Z,21.27
2023-01-23T12:57:02.124Z,20.15
2023-01-23T12:59:31.711Z,20.60
2023-01-23T13:02:04.370Z,23.05
2023-01-23T13:04:49.388Z,21.55
2023-01-23T13:07:19.020Z,19.65
2023-01-23T13:10:15.151Z,18.48
2023-01-23T13:12:41.718Z,19.45
2023-01-23T13:15:19.084Z,17.58
2023-01-23T13:17:59.776Z,14.77
2023-01-23T13:20:44.664Z,17.77
2023-01-23T13:23:26.164Z,17.35
2023-01-23T13:26:29.342Z,18.60
2023-01-23T13:28:57.378Z,19.58
2023-01-23T13:31:25.806Z,19.23
2023-01-23T13:33:55.325Z,18.00
2023-01-23T13:36:29.371Z,20.05
2023-01-23T13:39:14.678Z,17.77
2023-01-23T13:41:41.026Z,20.83
2023-01-23T13:44:10.529Z,19.40
2023-01-23T14:21:50.943Z,16.37
2023-01-23T14:27:11.626Z,15.35
2023-01-23T14:29:39.447Z,14.48
2023-01-23T14:32:06.161Z,19.13
2023-01-23T14:34:38.715Z,17.67
2023-01-23T14:37:07.046Z,16.42
2023-01-23T14:39:35.102Z,22.10
2023-01-23T14:42:02.689Z,17.08
2023-01-23T14:44:29.830Z,17.40
2023-01-23T14:46:58.524Z,18.48
2023-01-23T14:49:33.691Z,16.70
2023-01-23T14:52:01.658Z,17.23
2023-01-23T14:54:32.902Z,18.98
2023-01-23T14:57:01.517Z,22.63
2023-01-23T14:59:33.804Z,21.20
2023-01-23T15:02:05.365Z,19.75
2023-01-23T15:04:36.617Z,20.20
2023-01-23T15:07:02.919Z,21.17
2023-01-23T15:09:29.409Z,23.20
2023-01-23T15:11:57.032Z,17.50
2023-01-23T15:14:26.102Z,19.60
2023-01-23T15:16:59.131Z,20.00
2023-01-23T15:19:25.899Z,21.85
2023-01-23T15:22:04.406Z,19.02
2023-01-23T15:24:30.725Z,18.25
2023-01-23T15:26:58.425Z,18.83
2023-01-23T15:29:24.827Z,19.90
2023-01-23T15:31:51.929Z,19.90
2023-01-23T15:34:20.572Z,18.98
2023-01-23T15:36:47.007Z,17.95
2023-01-23T15:39:23.729Z,20.27
2023-01-23T15:41:51.862Z,16.88
2023-01-23T15:44:19.524Z,18.85
2023-01-23T15:46:46.253Z,16.48
2023-01-23T15:49:24.545Z,17.15
2023-01-23T15:52:32.298Z,20.30
2023-01-23T15:55:00.156Z,18.60
2023-01-23T15:57:26.690Z,18.75
2023-01-23T15:59:53.271Z,20.05
2023-01-23T16:02:30.671Z,19.70
2023-01-23T16:04:58.380Z,20.33
2023-01-23T16:07:38.624Z,19.95
2023-01-23T16:10:07.854Z,19.38
2023-01-23T16:12:38.718Z,18.95
2023-01-23T16:17:31.443Z,19.20
2023-01-23T16:19:57.752Z,18.58
2023-01-23T16:22:29.113Z,18.67
2023-01-23T16:24:56.751Z,21.33
2023-01-23T16:27:27.579Z,23.33
2023-01-23T16:29:55.240Z,24.90
2023-01-23T16:32:21.694Z,20.15
2023-01-23T16:34:48.730Z,20.95
2023-01-23T16:37:16.057Z,19.85
2023-01-23T16:39:43.077Z,22.98
2023-01-23T16:42:22.683Z,24.67
2023-01-23T16:44:49.494Z,24.02
2023-01-23T16:47:15.775Z,24.73
2023-01-23T16:49:57.257Z,24.17
2023-01-23T16:52:24.281Z,25.02
2023-01-23T16:54:51.707Z,23.95
2023-01-23T16:57:19.408Z,21.63
2023-01-23T16:59:45.977Z,25.13
2023-01-23T17:02:20.287Z,21.83
2023-01-23T17:04:46.709Z,23.85
2023-01-23T17:07:17.130Z,23.02
2023-01-23T17:09:44.203Z,25.77
2023-01-23T17:12:14.491Z,25.45
2023-01-23T17:14:42.108Z,22.38
2023-01-23T17:17:11.362Z,21.30
2023-01-23T17:19:41.679Z,24.25
2023-01-23T17:22:27.349Z,25.88
2023-01-23T17:24:53.802Z,24.75
2023-01-23T17:27:20.201Z,28.33
2023-01-23T17:29:46.645Z,24.23
2023-01-23T17:32:22.525Z,20.67
2023-01-23T17:34:50.459Z,22.48
2023-01-23T17:37:23.121Z,21.33
2023-01-23T17:39:49.606Z,23.63
2023-01-23T17:42:16.271Z,20.25
2023-01-23T17:44:42.834Z,21.90
2023-01-23T17:47:12.619Z,22.15
2023-01-23T17:49:46.482Z,27.45
2023-01-23T17:52:12.784Z,24.65
2023-01-23T17:54:39.205Z,24.20
2023-01-23T17:57:05.557Z,21.02
2023-01-23T17:59:31.944Z,24.17
2023-01-23T18:01:58.392Z,25.30
2023-01-23T18:04:24.713Z,21.92
2023-01-23T18:06:51.322Z,24.23
2023-01-23T18:09:23.611Z,23.15
2023-01-23T18:11:54.376Z,21.58
2023-01-23T18:14:28.488Z,23.30
2023-01-23T18:16:55.788Z,23.15
2023-01-23T18:19:24.855Z,21.77
2023-01-23T18:21:52.933Z,25.02
2023-01-23T18:24:32.799Z,23.73
2023-01-23T18:27:05.506Z,26.17
2023-01-23T18:29:41.354Z,27.10
2023-01-23T18:32:23.830Z,26.75
2023-01-23T18:34:58.980Z,20.88
2023-01-23T18:37:32.316Z,19.58
2023-01-23T18:40:18.400Z,24.67
2023-01-23T18:43:07.647Z,21.00
2023-01-23T18:45:34.156Z,22.08
2023-01-23T18:48:00.577Z,27.67
2023-01-23T18:50:27.152Z,22.42
2023-01-23T18:53:19.502Z,22.58
2023-01-23T18:55:51.937Z,25.42
2023-01-23T18:58:18.189Z,21.33
2023-01-23T19:00:48.569Z,20.85
2023-01-23T19:03:16.683Z,22.38
2023-01-23T19:05:43.709Z,23.63
2023-01-23T19:08:31.447Z,27.20
2023-01-23T19:11:00.311Z,28.02
2023-01-23T19:13:35.135Z,24.48
2023-01-23T19:16:01.494Z,26.23
2023-01-23T19:18:43.159Z,27.38
2023-01-23T19:21:09.438Z,23.55
2023-01-23T19:24:06.872Z,26.98
2023-01-23T19:26:34.759Z,23.35
2023-01-23T19:29:19.239Z,25.60
2023-01-23T19:32:03.024Z,24.45
2023-01-23T19:34:30.295Z,24.17
2023-01-23T19:36:56.658Z,25.95
2023-01-23T19:39:25.422Z,23.90
2023-01-23T19:41:53.297Z,25.33
2023-01-23T19:44:22.406Z,23.90
2023-01-23T19:46:51.268Z,24.67
2023-01-23T19:49:29.659Z,26.58
2023-01-23T19:51:56.138Z,24.90
2023-01-23T19:54:24.264Z,24.98
2023-01-23T19:56:51.211Z,23.80
2023-01-23T19:59:21.252Z,23.55
2023-01-23T20:01:52.876Z,26.33
2023-01-23T20:04:24.701Z,26.75
2023-01-23T20:06:58.142Z,26.15
2023-01-23T20:09:27.186Z,26.55
2023-01-23T20:12:15.928Z,25.77
2023-01-23T20:14:40.792Z,26.58
2023-01-23T20:17:07.193Z,26.77
2023-01-23T20:19:33.550Z,24.35
2023-01-23T20:21:59.862Z,27.88
2023-01-23T20:24:26.378Z,29.90
2023-01-23T20:26:52.750Z,27.80
2023-01-23T20:29:19.136Z,28.60
2023-01-23T20:31:45.588Z,24.42
2023-01-23T20:34:12.184Z,27.98
2023-01-23T20:36:38.540Z,28.00
2023-01-23T20:39:05.707Z,24.13
2023-01-23T20:41:32.042Z,28.17
2023-01-23T20:43:58.341Z,24.38
2023-01-23T20:46:26.804Z,28.42
2023-01-23T20:48:53.201Z,21.83
2023-01-23T20:51:19.702Z,23.63
2023-01-23T20:53:46.083Z,30.75
2023-01-23T20:56:18.927Z,27.98
2023-01-23T20:59:05.199Z,26.38
2023-01-23T21:01:53.273Z,26.88
2023-01-23T21:04:23.398Z,22.23
2023-01-23T21:06:49.681Z,26.55
2023-01-23T21:09:16.354Z,22.90
2023-01-23T21:11:42.746Z,22.05
2023-01-23T21:14:09.120Z,23.23
2023-01-23T21:16:35.778Z,22.42
2023-01-23T21:19:02.136Z,21.05
2023-01-23T21:21:28.438Z,22.65
2023-01-23T21:23:54.821Z,23.17
2023-01-23T21:26:22.346Z,23.73
2023-01-23T21:28:51.812Z,25.00
2023-01-23T21:31:20.204Z,23.70
2023-01-23T21:33:49.451Z,23.45
2023-01-23T21:36:18.060Z,22.27
2023-01-23T21:38:44.920Z,25.75
2023-01-23T21:41:11.228Z,20.50
2023-01-23T21:43:37.676Z,22.25
2023-01-23T21:46:04.134Z,24.70
2023-01-23T21:48:31.026Z,22.95
2023-01-23T21:51:10.765Z,23.50
2023-01-23T21:53:37.989Z,21.15
2023-01-23T21:56:05.297Z,20.70
2023-01-23T21:58:31.585Z,22.75
2023-01-23T22:01:20.643Z,24.02
2023-01-23T22:03:47.225Z,22.70
2023-01-23T22:06:13.796Z,21.90
2023-01-23T22:08:40.126Z,20.35
2023-01-23T22:11:07.293Z,22.30
2023-01-23T22:13:33.707Z,20.58
2023-01-23T22:16:02.417Z,20.60
2023-01-23T22:18:28.929Z,24.58
2023-01-23T22:20:56.128Z,23.38
2023-01-23T22:23:22.698Z,21.45
2023-01-23T22:25:49.883Z,22.25
2023-01-23T22:28:16.543Z,24.85
2023-01-23T22:30:42.946Z,23.10
2023-01-23T22:33:09.392Z,21.90
2023-01-23T22:35:39.770Z,21.70
2023-01-23T22:38:07.064Z,23.15
2023-01-23T22:40:33.514Z,20.73
2023-01-23T22:43:00.288Z,21.20
2023-01-23T22:45:26.721Z,23.05
2023-01-23T22:47:53.144Z,22.83
2023-01-23T22:50:19.695Z,22.50
2023-01-23T22:52:46.478Z,22.50
2023-01-23T22:55:12.967Z,19.50
2023-01-23T22:57:39.356Z,24.63
2023-01-23T23:00:10.662Z,19.95
2023-01-23T23:02:38.421Z,22.10
2023-01-23T23:05:06.133Z,21.42
2023-01-23T23:07:33.257Z,23.73
2023-01-23T23:09:59.557Z,20.85
2023-01-23T23:12:29.006Z,18.30
2023-01-23T23:14:55.336Z,20.70
2023-01-23T23:17:21.773Z,21.88
2023-01-23T23:19:48.155Z,18.73
2023-01-23T23:22:14.515Z,19.05
2023-01-23T23:24:40.955Z,23.30
2023-01-23T23:27:07.315Z,20.95
2023-01-23T23:29:33.803Z,20.67
2023-01-23T23:32:00.244Z,21.38
2023-01-23T23:34:27.763Z,23.23
2023-01-23T23:36:54.179Z,21.33
2023-01-23T23:39:20.491Z,22.23
2023-01-23T23:41:46.924Z,19.02
2023-01-23T23:44:13.511Z,21.70
2023-01-23T23:46:39.907Z,20.90
2023-01-23T23:49:06.278Z,19.77
2023-01-23T23:51:35.637Z,22.05
2023-01-23T23:54:01.952Z,19.52
2023-01-23T23:56:28.942Z,18.58
2023-01-23T23:58:55.833Z,18.58
